Time;durP1;ratioP1;P1;durP2;ratioP2;P2;SDS_P1;SDS_P2;PMS_P1;PMS_P2;Temp;Humidity;BMP_temperature;BMP_pressure;BME280_temperature;BME280_humidity;BME280_pressure;Samples;Min_cycle;Max_cycle;Signal;HPM_P1;HPM_P2
2023/07/11 00:00:18;;;;;;;4.22;1.38;;;;;;;-146.25;100.00;52072.19;2078944;28;34243;-74
2023/07/11 00:01:20;;;;;;;3.88;1.50;;;;;;;-146.25;100.00;52092.44;2079210;28;34155;-73
2023/07/11 00:02:22;;;;;;;4.50;1.40;;;;;;;-146.25;100.00;52064.06;2079277;28;34245;-72
2023/07/11 00:03:24;;;;;;;4.72;1.50;;;;;;;-146.25;100.00;52114.75;2079414;28;34520;-72
2023/07/11 00:04:28;;;;;;;3.78;1.42;;;;;;;-146.25;100.00;52084.34;2080300;28;20034;-72
2023/07/11 00:05:30;;;;;;;4.78;1.48;;;;;;;-146.25;100.00;52104.63;2079150;28;37204;-74
2023/07/11 00:06:32;;;;;;;6.07;1.60;;;;;;;-146.25;100.00;52086.38;2080392;28;20235;-73
2023/07/11 00:07:34;;;;;;;4.97;1.73;;;;;;;-146.25;100.00;52100.56;2079341;28;27147;-73
2023/07/11 00:08:36;;;;;;;4.93;1.70;;;;;;;-146.25;100.00;52092.44;2079033;28;37883;-73
2023/07/11 00:09:39;;;;;;;3.65;1.38;;;;;;;-146.25;100.00;52098.53;2079951;28;20160;-73
2023/07/11 00:10:41;;;;;;;4.40;1.58;;;;;;;-146.25;100.00;52096.50;2079556;28;37655;-73
2023/07/11 00:11:45;;;;;;;4.05;1.45;;;;;;;-146.25;100.00;52108.66;2079726;28;33252;-73
2023/07/11 00:12:47;;;;;;;4.57;1.52;;;;;;;-146.25;100.00;52102.59;2080151;28;20084;-73
2023/07/11 00:13:53;;;;;;;7.28;1.52;;;;;;;-146.25;100.00;52074.22;2078832;28;36745;-73
2023/07/11 00:14:56;;;;;;;3.20;1.58;;;;;;;-146.25;100.00;52074.22;2079965;28;20792;-73
2023/07/11 00:16:10;;;;;;;3.95;1.42;;;;;;;-146.25;100.00;52098.53;2079474;28;36399;-73
2023/07/11 00:17:12;;;;;;;3.13;1.50;;;;;;;-146.25;100.00;52090.44;2079226;28;36292;-74
2023/07/11 00:18:14;;;;;;;4.78;1.45;;;;;;;-146.25;100.00;52141.13;2079291;28;34676;-73
2023/07/11 00:19:19;;;;;;;6.05;1.85;;;;;;;-146.25;100.00;52098.53;2079799;28;30180;-74
2023/07/11 00:20:21;;;;;;;3.88;1.55;;;;;;;-146.25;100.00;52072.19;2079777;28;32735;-72
2023/07/11 00:21:24;;;;;;;5.88;1.40;;;;;;;-146.25;100.00;52062.03;2079211;28;35798;-73
2023/07/11 00:22:29;;;;;;;3.88;1.20;;;;;;;-146.25;100.00;52112.72;2079797;28;20978;-72
2023/07/11 00:23:31;;;;;;;4.68;1.52;;;;;;;-146.25;100.00;52118.81;2079091;28;33338;-74
2023/07/11 00:24:33;;;;;;;2.95;1.15;;;;;;;-146.25;100.00;52084.34;2079453;28;27826;-73
2023/07/11 00:25:37;;;;;;;4.50;1.30;;;;;;;-146.25;100.00;52104.63;2086866;28;30907;-74
2023/07/11 00:26:39;;;;;;;4.72;1.30;;;;;;;-146.25;100.00;52076.22;2079537;28;37187;-73
2023/07/11 00:27:42;;;;;;;4.10;1.50;;;;;;;-146.25;100.00;52084.34;2080255;28;20068;-74
2023/07/11 00:28:43;;;;;;;3.40;1.30;;;;;;;-146.25;100.00;52124.91;2080022;28;27372;-73
2023/07/11 00:29:45;;;;;;;4.47;1.45;;;;;;;-146.25;100.00;52066.09;2079729;28;20042;-74
2023/07/11 00:30:48;;;;;;;3.42;1.30;;;;;;;-146.25;100.00;52108.66;2079846;28;26783;-73
2023/07/11 00:31:50;;;;;;;3.85;1.10;;;;;;;-146.25;100.00;52116.78;2079403;28;27125;-73
2023/07/11 00:32:52;;;;;;;5.55;1.35;;;;;;;-146.25;100.00;52100.56;2079613;28;31677;-72
2023/07/11 00:33:55;;;;;;;4.13;1.40;;;;;;;-146.25;100.00;52092.44;2079798;28;20116;-73
2023/07/11 00:34:57;;;;;;;4.38;1.42;;;;;;;-146.25;100.00;52133.00;2079044;28;27518;-74
2023/07/11 00:35:59;;;;;;;6.10;1.30;;;;;;;-146.25;100.00;52080.28;2079421;28;20045;-74
2023/07/11 00:37:01;;;;;;;3.55;1.13;;;;;;;-146.25;100.00;52102.59;2087571;28;30069;-72
2023/07/11 00:38:03;;;;;;;3.80;1.10;;;;;;;-146.25;100.00;52114.75;2079916;28;25480;-73
2023/07/11 00:39:05;;;;;;;3.95;1.25;;;;;;;-146.25;100.00;52080.28;2079086;28;34111;-74
2023/07/11 00:40:08;;;;;;;4.85;1.20;;;;;;;-146.25;100.00;52070.16;2079538;28;20050;-72
2023/07/11 00:41:10;;;;;;;4.57;1.30;;;;;;;-146.25;100.00;52090.44;2079227;28;31663;-73
2023/07/11 00:42:12;;;;;;;3.63;1.17;;;;;;;-146.25;100.00;52084.34;2080185;28;20038;-73
2023/07/11 00:43:18;;;;;;;3.53;1.23;;;;;;;-146.25;100.00;52094.47;2079750;28;31415;-73
2023/07/11 00:44:20;;;;;;;5.90;1.15;;;;;;;-146.25;100.00;52082.31;2079769;28;38445;-73
2023/07/11 00:46:04;;;;;;;5.85;1.20;;;;;;;-146.25;100.00;52106.66;2070841;28;27362;-73
2023/07/11 00:47:06;;;;;;;1.77;1.05;;;;;;;-146.25;100.00;52120.84;2077413;28;32283;-74
2023/07/11 00:48:08;;;;;;;4.30;1.00;;;;;;;-146.25;100.00;52110.69;2080031;28;20061;-74
2023/07/11 00:49:14;;;;;;;3.25;1.13;;;;;;;-146.25;100.00;52114.75;2079520;28;34507;-74
2023/07/11 00:50:15;;;;;;;3.30;0.90;;;;;;;-146.25;100.00;52104.63;2070459;28;35543;-75
2023/07/11 00:51:31;;;;;;;4.65;0.90;;;;;;;-146.25;100.00;52116.78;2071534;28;24949;-74
2023/07/11 00:52:36;;;;;;;3.95;1.00;;;;;;;-146.25;100.00;52120.84;2078977;28;23057;-74
2023/07/11 00:53:43;;;;;;;4.97;0.73;;;;;;;-146.25;100.00;52116.78;2073350;28;24983;-75
2023/07/11 00:54:54;;;;;;;2.63;1.00;;;;;;;-146.25;100.00;52096.50;2071882;28;26324;-74
2023/07/11 00:56:02;;;;;;;2.42;1.00;;;;;;;-146.25;100.00;52084.34;2081449;28;20101;-74
2023/07/11 00:57:08;;;;;;;4.80;0.95;;;;;;;-146.25;100.00;52088.41;2087363;28;28508;-74
2023/07/11 00:58:14;;;;;;;4.45;0.90;;;;;;;-146.25;100.00;52104.63;2087891;28;20584;-74
2023/07/11 00:59:19;;;;;;;4.00;1.15;;;;;;;-146.25;100.00;52141.13;2087281;28;31577;-74
2023/07/11 01:00:21;;;;;;;3.88;1.10;;;;;;;-146.25;100.00;52124.91;2087541;28;30057;-74
2023/07/11 01:01:23;;;;;;;4.00;1.10;;;;;;;-146.25;100.00;52068.13;2079265;28;20161;-74
2023/07/11 01:02:28;;;;;;;3.38;1.40;;;;;;;-146.25;100.00;52098.53;2078833;28;35015;-73
2023/07/11 01:03:30;;;;;;;5.53;1.05;;;;;;;-146.25;100.00;52100.56;2086485;28;21527;-74
2023/07/11 01:04:37;;;;;;;4.00;0.90;;;;;;;-146.25;100.00;52110.69;2079122;28;20961;-74
2023/07/11 01:05:40;;;;;;;4.47;1.15;;;;;;;-146.25;100.00;52128.94;2079576;28;35581;-74
2023/07/11 01:06:42;;;;;;;4.15;1.33;;;;;;;-146.25;100.00;52120.84;2086877;28;20917;-74
2023/07/11 01:07:44;;;;;;;2.17;1.17;;;;;;;-146.25;100.00;52110.69;2079822;28;20974;-74
2023/07/11 01:08:48;;;;;;;1.95;0.90;;;;;;;-146.25;100.00;52126.91;2079349;28;26270;-74
2023/07/11 01:09:52;;;;;;;4.78;1.25;;;;;;;-146.25;100.00;52080.28;2078928;28;29420;-74
2023/07/11 01:10:54;;;;;;;4.88;1.80;;;;;;;-146.25;100.00;52100.56;2079531;28;27327;-74
2023/07/11 01:12:07;;;;;;;3.30;1.02;;;;;;;-146.25;100.00;52141.13;2078125;28;32178;-74
2023/07/11 01:13:11;;;;;;;3.42;0.93;;;;;;;-146.25;100.00;52096.50;2079222;28;25391;-75
2023/07/11 01:14:13;;;;;;;6.47;1.63;;;;;;;-146.25;100.00;52118.81;2079382;28;29845;-75
2023/07/11 01:15:16;;;;;;;4.40;1.30;;;;;;;-146.25;100.00;52110.69;2078977;28;20965;-73
2023/07/11 01:16:18;;;;;;;4.80;1.30;;;;;;;-146.25;100.00;52112.72;2079172;28;31712;-74
2023/07/11 01:17:35;;;;;;;4.65;1.00;;;;;;;-146.25;100.00;52096.50;2086971;28;36356;-74
2023/07/11 01:18:38;;;;;;;5.90;1.30;;;;;;;-146.25;100.00;52120.84;2078811;28;26652;-75
2023/07/11 01:19:40;;;;;;;4.63;1.45;;;;;;;-146.25;100.00;52112.72;2078805;28;25374;-73
2023/07/11 01:20:42;;;;;;;5.05;1.60;;;;;;;-146.25;100.00;52100.56;2087440;28;20057;-74
2023/07/11 01:21:47;;;;;;;4.57;1.20;;;;;;;-146.25;100.00;52094.47;2086493;28;29322;-74
2023/07/11 01:22:51;;;;;;;3.25;1.08;;;;;;;-146.25;100.00;52106.66;2078098;28;32309;-73
2023/07/11 01:23:52;;;;;;;4.25;1.30;;;;;;;-146.25;100.00;52112.72;2072444;28;31970;-75
2023/07/11 01:25:00;;;;;;;5.25;1.50;;;;;;;-146.25;100.00;52078.25;2099346;23;26331;-72
2023/07/11 01:26:07;;;;;;;6.53;1.50;;;;;;;-146.25;100.00;52084.34;2063681;28;27330;-72
2023/07/11 01:27:09;;;;;;;6.45;1.95;;;;;;;-146.25;100.00;52102.59;2064339;28;20376;-71
2023/07/11 01:28:12;;;;;;;4.53;1.40;;;;;;;-146.25;100.00;52108.66;2070278;28;23267;-72
2023/07/11 01:29:15;;;;;;;5.05;1.50;;;;;;;-146.25;100.00;52100.56;2064436;28;20047;-72
2023/07/11 01:30:22;;;;;;;4.03;1.70;;;;;;;-146.25;100.00;52062.03;2064871;28;27001;-71
2023/07/11 01:31:24;;;;;;;3.35;1.30;;;;;;;-146.25;100.00;52118.81;2080000;28;32688;-72
2023/07/11 01:32:26;;;;;;;6.70;1.60;;;;;;;-146.25;100.00;52096.50;2078924;28;20038;-71
2023/07/11 01:33:33;;;;;;;3.88;1.42;;;;;;;-146.25;100.00;52104.63;2064853;28;20043;-71
2023/07/11 01:34:35;;;;;;;4.43;1.60;;;;;;;-146.25;100.00;52108.66;2063485;28;30875;-72
2023/07/11 01:35:37;;;;;;;8.45;1.88;;;;;;;-146.25;100.00;52092.44;2064520;28;20087;-71
2023/07/11 01:36:38;;;;;;;5.53;2.00;;;;;;;-146.25;100.00;52102.59;2064484;28;30286;-71
2023/07/11 01:37:40;;;;;;;4.65;1.73;;;;;;;-146.25;100.00;52096.50;2064380;28;30807;-72
2023/07/11 01:38:42;;;;;;;7.72;1.88;;;;;;;-146.25;100.00;52120.84;2072093;28;24205;-71
2023/07/11 01:39:44;;;;;;;5.03;1.70;;;;;;;-146.25;100.00;52098.53;2071746;28;32487;-72
2023/07/11 01:40:47;;;;;;;4.57;1.63;;;;;;;-146.25;100.00;52116.78;2071674;28;24305;-72
2023/07/11 01:41:49;;;;;;;5.18;2.00;;;;;;;-146.25;100.00;52088.41;2062972;28;39882;-71
2023/07/11 01:42:51;;;;;;;3.58;1.58;;;;;;;-146.25;100.00;52088.41;2064055;28;25241;-71
2023/07/11 01:43:57;;;;;;;3.50;1.73;;;;;;;-146.25;100.00;52086.38;2080664;28;20068;-72
2023/07/11 01:44:58;;;;;;;5.35;1.42;;;;;;;-146.25;100.00;52133.00;2079416;28;28522;-73
2023/07/11 01:46:00;;;;;;;8.85;1.98;;;;;;;-146.25;100.00;52133.00;2072442;28;26388;-74
2023/07/11 01:47:06;;;;;;;3.45;1.83;;;;;;;-146.25;100.00;52096.50;2064920;28;20035;-72
2023/07/11 01:48:08;;;;;;;4.82;1.90;;;;;;;-146.25;100.00;52096.50;2073060;28;28148;-72
2023/07/11 01:49:09;;;;;;;5.03;1.80;;;;;;;-146.25;100.00;52126.91;2080291;28;23151;-72
2023/07/11 01:50:11;;;;;;;5.50;2.55;;;;;;;-146.25;100.00;52092.44;2072824;28;28875;-72
2023/07/11 01:51:13;;;;;;;3.88;1.77;;;;;;;-146.25;100.00;52114.75;2071777;28;29409;-72
2023/07/11 01:52:21;;;;;;;5.10;2.22;;;;;;;-146.25;100.00;52104.63;2079988;28;20104;-72
2023/07/11 01:53:23;;;;;;;6.82;2.25;;;;;;;-146.25;100.00;52096.50;2087315;28;24862;-72
2023/07/11 01:54:25;;;;;;;5.82;2.10;;;;;;;-146.25;100.00;52108.66;2080566;28;20034;-72
2023/07/11 01:55:27;;;;;;;8.88;2.03;;;;;;;-146.25;100.00;52066.09;2074010;28;27709;-73
2023/07/11 01:56:28;;;;;;;7.35;2.30;;;;;;;-146.25;100.00;52072.19;2072813;28;30934;-72
2023/07/11 01:57:30;;;;;;;4.90;2.30;;;;;;;-146.25;100.00;52070.16;2072112;28;20169;-72
2023/07/11 01:58:33;;;;;;;4.47;2.03;;;;;;;-146.25;100.00;52112.72;2072404;28;20112;-72
2023/07/11 01:59:37;;;;;;;6.55;2.55;;;;;;;-146.25;100.00;52092.44;2079943;28;20088;-72
2023/07/11 02:00:41;;;;;;;7.55;2.67;;;;;;;-146.25;100.00;52088.41;2087749;28;20084;-72
2023/07/11 02:01:43;;;;;;;6.10;2.65;;;;;;;-146.25;100.00;52100.56;2087469;28;31063;-72
2023/07/11 02:02:45;;;;;;;7.10;2.38;;;;;;;-146.25;100.00;52088.41;2080065;28;26708;-71
2023/07/11 02:03:49;;;;;;;5.10;2.80;;;;;;;-146.25;100.00;52108.66;2088609;28;20167;-72
2023/07/11 02:04:50;;;;;;;6.10;2.55;;;;;;;-146.25;100.00;52110.69;2087585;28;30640;-74
2023/07/11 02:05:52;;;;;;;6.82;2.55;;;;;;;-146.25;100.00;52100.56;2088107;28;30645;-73
2023/07/11 02:06:55;;;;;;;9.30;2.75;;;;;;;-146.25;100.00;52133.00;2087749;28;34411;-73
2023/07/11 02:07:56;;;;;;;4.60;2.72;;;;;;;-146.25;100.00;52088.41;2088637;28;24050;-73
2023/07/11 02:09:02;;;;;;;5.30;2.53;;;;;;;-146.25;100.00;52135.03;2095860;28;28635;-73
2023/07/11 02:10:06;;;;;;;6.22;2.20;;;;;;;-146.25;100.00;52120.84;2086824;28;21074;-73
2023/07/11 02:11:08;;;;;;;5.28;2.50;;;;;;;-146.25;100.00;52106.66;2079515;28;27684;-73
2023/07/11 02:12:13;;;;;;;7.80;2.95;;;;;;;-146.25;100.00;52133.00;2088235;28;20041;-73
2023/07/11 02:13:17;;;;;;;7.13;2.53;;;;;;;-146.25;100.00;52090.44;2095303;28;26130;-73
2023/07/11 02:14:20;;;;;;;6.90;2.88;;;;;;;-146.25;100.00;52088.41;2079505;28;20131;-73
2023/07/11 02:15:22;;;;;;;8.20;2.88;;;;;;;-146.25;100.00;52118.81;2072372;28;20049;-73
2023/07/11 02:16:24;;;;;;;6.30;2.67;;;;;;;-146.25;100.00;52078.25;2072438;28;28316;-73
2023/07/11 02:17:26;;;;;;;6.57;2.60;;;;;;;-146.25;100.00;52122.88;2072126;28;35000;-73
2023/07/11 02:18:29;;;;;;;6.93;2.53;;;;;;;-146.25;100.00;52076.22;2088777;28;20198;-73
2023/07/11 02:19:30;;;;;;;5.53;2.38;;;;;;;-146.25;100.00;52076.22;2079621;28;20085;-73
2023/07/11 02:20:43;;;;;;;6.72;2.60;;;;;;;-146.25;100.00;52102.59;2064233;28;20610;-73
2023/07/11 02:21:46;;;;;;;6.93;2.90;;;;;;;-146.25;100.00;52122.88;2072009;28;20192;-73
2023/07/11 02:22:50;;;;;;;6.50;2.55;;;;;;;-146.25;100.00;52126.91;2088113;28;20049;-73
2023/07/11 02:23:52;;;;;;;6.53;2.42;;;;;;;-146.25;100.00;52124.91;2087135;28;26014;-73
2023/07/11 02:24:54;;;;;;;6.00;2.60;;;;;;;-146.25;100.00;52096.50;2072546;28;20046;-72
2023/07/11 02:25:55;;;;;;;8.88;2.92;;;;;;;-146.25;100.00;52116.78;2072027;28;34655;-73
2023/07/11 02:26:57;;;;;;;7.15;2.50;;;;;;;-146.25;100.00;52088.41;2072140;28;36197;-72
2023/07/11 02:27:59;;;;;;;7.43;2.70;;;;;;;-146.25;100.00;52096.50;2071962;28;33766;-73
2023/07/11 02:29:01;;;;;;;9.18;2.90;;;;;;;-146.25;100.00;52110.69;2071638;28;34626;-73
2023/07/11 02:30:07;;;;;;;7.40;2.83;;;;;;;-146.25;100.00;52114.75;2071895;28;35457;-73
2023/07/11 02:31:09;;;;;;;8.50;2.83;;;;;;;-146.25;100.00;52102.59;2072679;28;33151;-73
2023/07/11 02:32:10;;;;;;;7.72;2.88;;;;;;;-146.25;100.00;52128.94;2072280;28;34084;-73
2023/07/11 02:33:12;;;;;;;5.20;2.90;;;;;;;-146.25;100.00;52118.81;2072705;28;20914;-73
2023/07/11 02:34:14;;;;;;;6.65;2.53;;;;;;;-146.25;100.00;52098.53;2088061;28;32254;-73
2023/07/11 02:35:16;;;;;;;8.20;3.22;;;;;;;-146.25;100.00;52096.50;2086929;28;32611;-73
2023/07/11 02:36:18;;;;;;;7.72;3.30;;;;;;;-146.25;100.00;52114.75;2072273;28;34859;-73
2023/07/11 02:37:21;;;;;;;7.75;3.05;;;;;;;-146.25;100.00;52102.59;2088087;28;20871;-73
2023/07/11 02:38:25;;;;;;;4.20;2.58;;;;;;;-146.25;100.00;52092.44;2086843;28;34582;-72
2023/07/11 02:39:27;;;;;;;5.05;2.17;;;;;;;-146.25;100.00;52108.66;2087557;28;30930;-73
2023/07/11 02:40:29;;;;;;;8.77;2.80;;;;;;;-146.25;100.00;52137.06;2086965;28;34974;-73
2023/07/11 02:41:31;;;;;;;5.22;2.47;;;;;;;-146.25;100.00;52100.56;2072262;28;20046;-73
2023/07/11 02:42:33;;;;;;;4.82;2.60;;;;;;;-146.25;100.00;52143.13;2087699;28;35147;-72
2023/07/11 02:43:34;;;;;;;9.38;2.97;;;;;;;-146.25;100.00;52078.25;2088092;28;32504;-69
2023/07/11 02:44:39;;;;;;;5.22;2.78;;;;;;;-146.25;100.00;52090.44;2087567;28;33343;-72
2023/07/11 02:45:41;;;;;;;5.00;2.67;;;;;;;-146.25;100.00;52100.56;2086689;28;36624;-72
2023/07/11 02:46:43;;;;;;;4.57;3.17;;;;;;;-146.25;100.00;52112.72;2072074;28;33561;-72
2023/07/11 02:47:47;;;;;;;6.40;3.25;;;;;;;-146.25;100.00;52124.91;2072688;28;20030;-72
2023/07/11 02:48:51;;;;;;;7.75;3.20;;;;;;;-146.25;100.00;52124.91;2087656;28;33273;-72
2023/07/11 02:49:53;;;;;;;6.32;2.70;;;;;;;-146.25;100.00;52116.78;2086872;28;32225;-72
2023/07/11 02:50:55;;;;;;;6.15;3.05;;;;;;;-146.25;100.00;52108.66;2072011;28;36985;-73
2023/07/11 02:51:57;;;;;;;7.13;3.40;;;;;;;-146.25;100.00;52088.41;2072151;28;36177;-73
2023/07/11 02:52:59;;;;;;;6.72;3.38;;;;;;;-146.25;100.00;52116.78;2072074;28;32740;-72
2023/07/11 02:54:01;;;;;;;6.78;3.13;;;;;;;-146.25;100.00;52104.63;2072026;28;36156;-72
2023/07/11 02:55:04;;;;;;;6.90;3.08;;;;;;;-146.25;100.00;52102.59;2087887;28;34419;-72
2023/07/11 02:56:06;;;;;;;11.25;4.15;;;;;;;-146.25;100.00;52102.59;2086909;28;33430;-72
2023/07/11 02:57:11;;;;;;;6.15;3.35;;;;;;;-146.25;100.00;52096.50;2071974;28;37639;-72
2023/07/11 02:58:13;;;;;;;6.13;3.10;;;;;;;-146.25;100.00;52090.44;2071952;28;32361;-72
2023/07/11 02:59:16;;;;;;;6.18;3.03;;;;;;;-146.25;100.00;52128.94;2072064;28;37697;-72
2023/07/11 03:00:18;;;;;;;5.63;3.30;;;;;;;-146.25;100.00;52110.69;2087739;28;33542;-72
2023/07/11 03:01:20;;;;;;;4.65;3.30;;;;;;;-146.25;100.00;52133.00;2087295;28;31492;-72
2023/07/11 03:02:22;;;;;;;6.97;3.42;;;;;;;-146.25;100.00;52128.94;2087651;28;35507;-72
2023/07/11 03:03:24;;;;;;;7.75;3.75;;;;;;;-146.25;100.00;52116.78;2087496;28;28407;-73
2023/07/11 03:04:26;;;;;;;6.85;3.15;;;;;;;-146.25;100.00;52112.72;2078902;28;33333;-73
2023/07/11 03:05:30;;;;;;;10.10;3.78;;;;;;;-146.25;100.00;52128.94;2071915;28;37032;-73
2023/07/11 03:06:32;;;;;;;5.13;3.25;;;;;;;-146.25;100.00;52096.50;2071902;28;35628;-73
2023/07/11 03:07:34;;;;;;;7.53;3.38;;;;;;;-146.25;100.00;52108.66;2070798;28;38663;-73
2023/07/11 03:08:36;;;;;;;7.25;3.45;;;;;;;-146.25;100.00;52108.66;2071380;28;37256;-72
2023/07/11 03:09:38;;;;;;;9.85;3.08;;;;;;;-146.25;100.00;52108.66;2072068;28;20077;-73
2023/07/11 03:10:41;;;;;;;6.65;3.40;;;;;;;-146.25;100.00;52088.41;2072001;28;35306;-73
2023/07/11 03:11:45;;;;;;;9.77;3.10;;;;;;;-146.25;100.00;52130.97;2072148;28;33705;-73
2023/07/11 03:12:47;;;;;;;5.57;3.03;;;;;;;-146.25;100.00;52108.66;2071853;28;36321;-73
2023/07/11 03:13:49;;;;;;;7.18;3.45;;;;;;;-146.25;100.00;52122.88;2071790;28;36304;-73
2023/07/11 03:14:51;;;;;;;7.00;3.47;;;;;;;-146.25;100.00;52112.72;2072872;28;20864;-73
2023/07/11 03:15:53;;;;;;;6.07;3.25;;;;;;;-146.25;100.00;52116.78;2087730;28;35373;-72
2023/07/11 03:16:54;;;;;;;6.65;3.60;;;;;;;-146.25;100.00;52124.91;2086829;28;33970;-73
2023/07/11 03:17:58;;;;;;;6.55;3.28;;;;;;;-146.25;100.00;52171.53;2071434;28;33999;-73
2023/07/11 03:19:01;;;;;;;6.20;3.17;;;;;;;-146.25;100.00;52130.97;2072614;28;20120;-73
2023/07/11 03:20:04;;;;;;;5.80;3.47;;;;;;;-146.25;100.00;52082.31;2072507;28;20548;-73
2023/07/11 03:21:06;;;;;;;6.75;3.20;;;;;;;-146.25;100.00;52112.72;2087614;28;39029;-73
2023/07/11 03:22:08;;;;;;;7.43;3.33;;;;;;;-146.25;100.00;52126.91;2087130;28;35173;-73
2023/07/11 03:23:13;;;;;;;7.22;3.08;;;;;;;-146.25;100.00;52082.31;2072155;28;20077;-73
2023/07/11 03:24:16;;;;;;;8.52;3.60;;;;;;;-146.25;100.00;52106.66;2087435;28;40396;-73
2023/07/11 03:25:18;;;;;;;9.65;3.67;;;;;;;-146.25;100.00;52120.84;2086765;28;35003;-73
2023/07/11 03:26:20;;;;;;;6.80;3.58;;;;;;;-146.25;100.00;52133.00;2072527;28;20077;-72
2023/07/11 03:27:22;;;;;;;5.38;3.10;;;;;;;-146.25;100.00;52104.63;2071757;28;37159;-73
2023/07/11 03:28:23;;;;;;;6.78;3.20;;;;;;;-146.25;100.00;52112.72;2071730;28;32940;-72
2023/07/11 03:29:27;;;;;;;7.03;3.45;;;;;;;-146.25;100.00;52108.66;2087500;28;31396;-71
2023/07/11 03:30:31;;;;;;;7.22;2.92;;;;;;;-146.25;100.00;52135.03;2087136;28;36631;-73
2023/07/11 03:31:33;;;;;;;7.63;3.63;;;;;;;-146.25;100.00;52098.53;2087437;28;34687;-73
2023/07/11 03:32:35;;;;;;;6.10;3.10;;;;;;;-146.25;100.00;52153.28;2079054;28;26806;-73
2023/07/11 03:33:36;;;;;;;7.35;3.08;;;;;;;-146.25;100.00;52126.91;2070862;28;36291;-72
2023/07/11 03:34:38;;;;;;;5.75;3.30;;;;;;;-146.25;100.00;52151.25;2087596;28;32849;-73
2023/07/11 03:35:54;;;;;;;7.32;3.28;;;;;;;-146.25;100.00;52149.22;2083838;28;35456;-73
2023/07/11 03:36:55;;;;;;;4.80;2.80;;;;;;;-146.25;100.00;52137.06;2072151;28;20042;-73
2023/07/11 03:37:57;;;;;;;4.53;2.47;;;;;;;-146.25;100.00;52147.19;2072011;28;33488;-73
2023/07/11 03:38:59;;;;;;;4.90;2.50;;;;;;;-146.25;100.00;52141.13;2087507;28;37517;-72
2023/07/11 03:40:03;;;;;;;6.68;2.85;;;;;;;-146.25;100.00;52135.03;2087831;28;20041;-73
2023/07/11 03:41:07;;;;;;;5.35;2.63;;;;;;;-146.25;100.00;52143.13;2078292;28;35420;-73
2023/07/11 03:42:09;;;;;;;6.85;3.20;;;;;;;-146.25;100.00;52100.56;2071361;28;33376;-73
2023/07/11 03:43:11;;;;;;;5.90;2.67;;;;;;;-146.25;100.00;52104.63;2071375;28;34824;-73
2023/07/11 03:44:13;;;;;;;6.75;3.03;;;;;;;-146.25;100.00;52112.72;2071719;28;37032;-73
2023/07/11 03:45:15;;;;;;;5.75;3.30;;;;;;;-146.25;100.00;52116.78;2087976;28;20945;-72
2023/07/11 03:46:17;;;;;;;6.68;2.90;;;;;;;-146.25;100.00;52133.00;2087327;28;24180;-73
2023/07/11 03:47:18;;;;;;;6.97;3.20;;;;;;;-146.25;100.00;52112.72;2071535;28;35146;-73
2023/07/11 03:48:20;;;;;;;6.95;2.78;;;;;;;-146.25;100.00;52088.41;2071210;28;20156;-73
2023/07/11 03:49:22;;;;;;;8.10;2.85;;;;;;;-146.25;100.00;52112.72;2079281;28;35657;-73
2023/07/11 03:50:24;;;;;;;6.28;2.50;;;;;;;-146.25;100.00;52137.06;2078490;28;39902;-72
2023/07/11 03:51:28;;;;;;;7.22;2.40;;;;;;;-146.25;100.00;52114.75;2069983;28;32787;-72
2023/07/11 03:52:30;;;;;;;7.85;2.92;;;;;;;-146.25;100.00;52135.03;2087023;28;35181;-72
2023/07/11 03:53:32;;;;;;;5.65;2.40;;;;;;;-146.25;100.00;52135.03;2087833;28;20147;-72
2023/07/11 03:54:33;;;;;;;7.22;2.58;;;;;;;-146.25;100.00;52128.94;2071816;28;32971;-73
2023/07/11 03:55:35;;;;;;;4.32;1.70;;;;;;;-146.25;100.00;52149.22;2071380;28;35854;-72
2023/07/11 03:56:37;;;;;;;8.20;2.45;;;;;;;-146.25;100.00;52128.94;2071155;28;33439;-72
2023/07/11 03:57:39;;;;;;;4.03;2.13;;;;;;;-146.25;100.00;52137.06;2062840;28;36797;-72
2023/07/11 03:58:42;;;;;;;7.82;2.63;;;;;;;-146.25;100.00;52124.91;2071011;28;35597;-72
2023/07/11 03:59:44;;;;;;;7.80;2.65;;;;;;;-146.25;100.00;52112.72;2087578;28;38184;-72
2023/07/11 04:00:46;;;;;;;5.70;2.42;;;;;;;-146.25;100.00;52137.06;2078724;28;33561;-72
2023/07/11 04:01:48;;;;;;;9.90;2.40;;;;;;;-146.25;100.00;52106.66;2071703;28;20891;-72
2023/07/11 04:02:51;;;;;;;6.90;2.10;;;;;;;-146.25;100.00;52084.34;2071397;28;34522;-73
2023/07/11 04:03:52;;;;;;;5.35;1.88;;;;;;;-146.25;100.00;52126.91;2072178;28;35956;-72
2023/07/11 04:04:57;;;;;;;9.07;2.30;;;;;;;-146.25;100.00;52165.44;2071711;28;32472;-72
2023/07/11 04:05:58;;;;;;;5.57;1.63;;;;;;;-146.25;99.87;52151.25;2071271;28;37368;-73
2023/07/11 04:07:02;;;;;;;4.13;1.92;;;;;;;-146.25;99.48;52137.06;2071419;28;34182;-72
2023/07/11 04:08:04;;;;;;;6.88;2.15;;;;;;;-146.25;99.21;52116.78;2071206;28;33782;-72
2023/07/11 04:09:08;;;;;;;6.05;1.70;;;;;;;-146.25;97.67;52110.69;2087209;28;30851;-72
2023/07/11 04:10:12;;;;;;;4.93;1.88;;;;;;;-146.25;95.32;52108.66;2086983;28;20046;-73
2023/07/11 04:11:14;;;;;;;7.25;2.03;;;;;;;-146.25;95.21;52116.78;2087110;28;32441;-72
2023/07/11 04:12:18;;;;;;;6.07;1.90;;;;;;;-146.25;91.97;52149.22;2086579;28;34059;-73
2023/07/11 04:13:20;;;;;;;7.28;1.60;;;;;;;-146.25;92.24;52104.63;2071480;28;32057;-73
2023/07/11 04:14:22;;;;;;;8.63;1.58;;;;;;;-146.25;90.64;52120.84;2071378;28;38561;-72
2023/07/11 04:15:24;;;;;;;4.22;1.67;;;;;;;-146.25;88.20;52116.78;2087877;28;20053;-72
2023/07/11 04:16:25;;;;;;;4.63;1.60;;;;;;;-146.25;87.51;52114.75;2086477;28;34894;-73
2023/07/11 04:17:27;;;;;;;4.30;1.50;;;;;;;-146.25;88.22;52135.03;2071890;28;20418;-73
2023/07/11 04:18:29;;;;;;;5.85;1.55;;;;;;;-146.25;88.14;52120.84;2071474;28;29693;-73
2023/07/11 04:19:31;;;;;;;4.38;1.30;;;;;;;-146.25;88.28;52141.13;2071427;28;33128;-72
2023/07/11 04:20:35;;;;;;;3.47;1.40;;;;;;;-146.25;89.18;52120.84;2071757;28;25395;-73
2023/07/11 04:21:37;;;;;;;4.80;1.40;;;;;;;-146.25;89.38;52169.50;2086852;28;37847;-73
2023/07/11 04:22:39;;;;;;;6.82;2.08;;;;;;;-146.25;88.17;52122.88;2086568;28;35050;-72
2023/07/11 04:23:42;;;;;;;5.90;1.67;;;;;;;-146.25;87.55;52114.75;2078755;28;33855;-72
2023/07/11 04:24:44;;;;;;;7.32;1.60;;;;;;;-146.25;87.37;52108.66;2086798;28;37157;-72
2023/07/11 04:25:46;;;;;;;4.30;1.55;;;;;;;-146.25;86.23;52106.66;2087096;28;21012;-72
2023/07/11 04:26:48;;;;;;;6.65;1.20;;;;;;;-146.25;86.15;52104.63;2071450;28;36567;-72
2023/07/11 04:27:51;;;;;;;5.70;1.50;;;;;;;-146.25;83.86;52141.13;2071958;28;20904;-73
2023/07/11 04:28:53;;;;;;;7.00;1.33;;;;;;;-146.25;82.61;52120.84;2071495;28;34888;-72
2023/07/11 04:29:55;;;;;;;4.47;1.50;;;;;;;-146.25;80.69;52114.75;2071122;28;37263;-73
2023/07/11 04:30:57;;;;;;;4.95;1.15;;;;;;;-146.25;78.16;52108.66;2071048;28;33146;-72
2023/07/11 04:31:58;;;;;;;3.72;1.20;;;;;;;-146.25;76.47;52128.94;2070802;28;34813;-72
2023/07/11 04:33:02;;;;;;;7.82;1.85;;;;;;;-146.25;75.29;52120.84;2070522;28;34950;-73
2023/07/11 04:34:05;;;;;;;4.65;1.40;;;;;;;-146.25;71.73;52114.75;2071436;28;20843;-73
2023/07/11 04:35:13;;;;;;;3.97;1.38;;;;;;;-146.25;70.64;52104.63;2071404;28;38183;-73
2023/07/11 04:36:16;;;;;;;4.75;1.45;;;;;;;-146.25;69.79;52118.81;2087366;28;35448;-72
2023/07/11 04:37:22;;;;;;;3.17;1.13;;;;;;;-146.25;66.84;52092.44;2085957;28;33579;-73
2023/07/11 04:38:24;;;;;;;3.45;0.98;;;;;;;-146.25;65.90;52114.75;2071121;28;39475;-73
2023/07/11 04:39:25;;;;;;;3.97;1.33;;;;;;;-146.25;63.89;52092.44;2072097;28;20993;-73
2023/07/11 04:40:27;;;;;;;5.43;1.17;;;;;;;-146.25;63.65;52104.63;2071364;28;37580;-72
2023/07/11 04:41:29;;;;;;;7.68;1.00;;;;;;;-146.25;63.99;52098.53;2071041;28;36535;-71
2023/07/11 04:42:31;;;;;;;6.10;1.23;;;;;;;-146.25;64.82;52084.34;2071211;28;32696;-72
2023/07/11 04:43:34;;;;;;;4.55;1.08;;;;;;;-146.25;65.73;52066.09;2071356;28;37417;-72
2023/07/11 04:44:35;;;;;;;5.88;1.30;;;;;;;-146.25;66.40;52092.44;2071851;28;33162;-72
2023/07/11 04:45:37;;;;;;;5.82;1.20;;;;;;;-146.25;67.50;52104.63;2070935;28;37041;-72
2023/07/11 04:46:39;;;;;;;4.22;1.15;;;;;;;-146.25;66.81;52096.50;2071254;28;35173;-72